Terminal Aerodrome Forecast
Issued by NWS

Home | Current Version | Previous Version | Text Only | Print | Product List | Glossary On
Versions: 1 2 3 4 5 6 7 8 9 10 11 12 13 14
931
FTUS44 KJAN 261122
TAFGTR
TAF
KGTR 261122Z 2612/2712 16003KT P6SM SKC
     FM261600 20011G20KT P6SM FEW250
     FM270100 18009KT P6SM SKC
     FM270900 19007KT P6SM OVC025=

USA.gov is the U.S. government's official web portal to all federal, state and local government web resources and services.